sensor_id;sensor_type;location;lat;lon;timestamp;temperature;humidity
23669;DHT22;12011;47.422;15.018;2024-01-30T00:00:00;-6.00;99.90
23669;DHT22;12011;47.422;15.018;2024-01-30T00:02:31;-5.90;99.90
23669;DHT22;12011;47.422;15.018;2024-01-30T00:05:04;-6.00;99.90
23669;DHT22;12011;47.422;15.018;2024-01-30T00:07:34;-6.10;99.90
23669;DHT22;12011;47.422;15.018;2024-01-30T00:10:04;-6.10;99.90
23669;DHT22;12011;47.422;15.018;2024-01-30T00:12:35;-6.20;99.90
23669;DHT22;12011;47.422;15.018;2024-01-30T00:15:05;-6.10;99.90
23669;DHT22;12011;47.422;15.018;2024-01-30T00:17:36;-6.00;99.90
23669;DHT22;12011;47.422;15.018;2024-01-30T00:20:09;-6.00;99.90
23669;DHT22;12011;47.422;15.018;2024-01-30T00:22:39;-5.90;99.90
23669;DHT22;12011;47.422;15.018;2024-01-30T00:25:09;-5.90;99.90
23669;DHT22;12011;47.422;15.018;2024-01-30T00:27:39;-5.80;99.90
23669;DHT22;12011;47.422;15.018;2024-01-30T00:30:10;-5.60;99.90
23669;DHT22;12011;47.422;15.018;2024-01-30T00:32:41;-6.10;99.90
23669;DHT22;12011;47.422;15.018;2024-01-30T00:35:13;-6.10;99.90
23669;DHT22;12011;47.422;15.018;2024-01-30T00:37:43;-6.20;99.90
23669;DHT22;12011;47.422;15.018;2024-01-30T00:40:13;-6.30;99.90
23669;DHT22;12011;47.422;15.018;2024-01-30T00:42:44;-6.30;99.90
23669;DHT22;12011;47.422;15.018;2024-01-30T00:45:14;-6.30;99.90
23669;DHT22;12011;47.422;15.018;2024-01-30T00:47:44;-6.30;99.90
23669;DHT22;12011;47.422;15.018;2024-01-30T00:50:17;-5.70;99.90
23669;DHT22;12011;47.422;15.018;2024-01-30T00:52:48;-6.30;99.90
23669;DHT22;12011;47.422;15.018;2024-01-30T00:55:23;-6.30;99.90
23669;DHT22;12011;47.422;15.018;2024-01-30T00:57:53;-6.40;99.90
23669;DHT22;12011;47.422;15.018;2024-01-30T01:00:22;-6.40;99.90
23669;DHT22;12011;47.422;15.018;2024-01-30T01:02:55;-6.50;99.90
23669;DHT22;12011;47.422;15.018;2024-01-30T01:05:27;-6.20;99.90
23669;DHT22;12011;47.422;15.018;2024-01-30T01:07:57;-6.60;99.90
23669;DHT22;12011;47.422;15.018;2024-01-30T01:10:27;-6.00;99.90
23669;DHT22;12011;47.422;15.018;2024-01-30T01:12:57;-6.60;99.90
23669;DHT22;12011;47.422;15.018;2024-01-30T01:15:26;-6.60;99.90
23669;DHT22;12011;47.422;15.018;2024-01-30T01:17:56;-6.60;99.90
23669;DHT22;12011;47.422;15.018;2024-01-30T01:20:28;-6.30;99.90
23669;DHT22;12011;47.422;15.018;2024-01-30T01:22:58;-6.40;99.90
23669;DHT22;12011;47.422;15.018;2024-01-30T01:25:28;-6.40;99.90
23669;DHT22;12011;47.422;15.018;2024-01-30T01:27:57;-6.00;99.90
23669;DHT22;12011;47.422;15.018;2024-01-30T01:30:27;-5.10;99.90
23669;DHT22;12011;47.422;15.018;2024-01-30T01:32:57;-6.50;99.90
23669;DHT22;12011;47.422;15.018;2024-01-30T01:35:31;-6.50;99.90
23669;DHT22;12011;47.422;15.018;2024-01-30T01:38:01;-6.50;99.90
23669;DHT22;12011;47.422;15.018;2024-01-30T01:40:31;-6.60;99.90
23669;DHT22;12011;47.422;15.018;2024-01-30T01:43:03;-6.70;99.90
23669;DHT22;12011;47.422;15.018;2024-01-30T01:45:34;-6.70;99.90
23669;DHT22;12011;47.422;15.018;2024-01-30T01:48:04;-6.80;99.90
23669;DHT22;12011;47.422;15.018;2024-01-30T01:50:37;-6.70;99.90
23669;DHT22;12011;47.422;15.018;2024-01-30T01:53:08;-6.80;99.90
23669;DHT22;12011;47.422;15.018;2024-01-30T01:55:38;-6.70;99.90
23669;DHT22;12011;47.422;15.018;2024-01-30T01:58:09;-6.80;99.90
23669;DHT22;12011;47.422;15.018;2024-01-30T02:00:39;-6.90;99.90
23669;DHT22;12011;47.422;15.018;2024-01-30T02:03:10;-7.00;99.90
23669;DHT22;12011;47.422;15.018;2024-01-30T02:05:43;-7.00;99.90
23669;DHT22;12011;47.422;15.018;2024-01-30T02:08:13;-6.90;99.90
23669;DHT22;12011;47.422;15.018;2024-01-30T02:10:43;-6.30;99.90
23669;DHT22;12011;47.422;15.018;2024-01-30T02:13:12;-6.80;99.90
23669;DHT22;12011;47.422;15.018;2024-01-30T02:15:42;-6.70;99.90
23669;DHT22;12011;47.422;15.018;2024-01-30T02:18:12;-6.70;99.90
23669;DHT22;12011;47.422;15.018;2024-01-30T02:20:44;-6.80;99.90
23669;DHT22;12011;47.422;15.018;2024-01-30T02:23:18;-6.80;99.90
23669;DHT22;12011;47.422;15.018;2024-01-30T02:25:49;-6.80;99.90
23669;DHT22;12011;47.422;15.018;2024-01-30T02:28:19;-6.80;99.90
23669;DHT22;12011;47.422;15.018;2024-01-30T02:30:49;-6.70;99.90
23669;DHT22;12011;47.422;15.018;2024-01-30T02:33:19;-6.90;99.90
23669;DHT22;12011;47.422;15.018;2024-01-30T02:35:49;-6.90;99.90
23669;DHT22;12011;47.422;15.018;2024-01-30T02:38:21;-6.20;99.90
23669;DHT22;12011;47.422;15.018;2024-01-30T02:40:53;-6.90;99.90
23669;DHT22;12011;47.422;15.018;2024-01-30T02:43:23;-6.80;99.90
23669;DHT22;12011;47.422;15.018;2024-01-30T02:45:52;-6.90;99.90
23669;DHT22;12011;47.422;15.018;2024-01-30T02:48:22;-7.00;99.90
23669;DHT22;12011;47.422;15.018;2024-01-30T02:50:52;-7.00;99.90
23669;DHT22;12011;47.422;15.018;2024-01-30T02:53:24;-6.80;99.90
23669;DHT22;12011;47.422;15.018;2024-01-30T02:55:53;-7.00;99.90
23669;DHT22;12011;47.422;15.018;2024-01-30T02:58:23;-7.00;99.90
23669;DHT22;12011;47.422;15.018;2024-01-30T03:00:53;-7.00;99.90
23669;DHT22;12011;47.422;15.018;2024-01-30T03:03:22;-7.00;99.90
23669;DHT22;12011;47.422;15.018;2024-01-30T03:05:52;-7.00;99.90
23669;DHT22;12011;47.422;15.018;2024-01-30T03:08:24;-6.40;99.90
23669;DHT22;12011;47.422;15.018;2024-01-30T03:10:54;-6.90;99.90
23669;DHT22;12011;47.422;15.018;2024-01-30T03:13:24;-7.10;99.90
23669;DHT22;12011;47.422;15.018;2024-01-30T03:15:54;-7.10;99.90
23669;DHT22;12011;47.422;15.018;2024-01-30T03:18:23;-7.10;99.90
23669;DHT22;12011;47.422;15.018;2024-01-30T03:20:53;-7.20;99.90
23669;DHT22;12011;47.422;15.018;2024-01-30T03:23:26;-6.30;99.90
23669;DHT22;12011;47.422;15.018;2024-01-30T03:25:56;-7.20;99.90
23669;DHT22;12011;47.422;15.018;2024-01-30T03:28:25;-7.30;99.90
23669;DHT22;12011;47.422;15.018;2024-01-30T03:30:55;-7.10;99.90
23669;DHT22;12011;47.422;15.018;2024-01-30T03:33:25;-7.10;99.90
23669;DHT22;12011;47.422;15.018;2024-01-30T03:35:55;-7.20;99.90
23669;DHT22;12011;47.422;15.018;2024-01-30T03:38:27;-7.20;99.90
23669;DHT22;12011;47.422;15.018;2024-01-30T03:40:59;-7.30;99.90
23669;DHT22;12011;47.422;15.018;2024-01-30T03:43:29;-7.30;99.90
23669;DHT22;12011;47.422;15.018;2024-01-30T03:46:00;-7.40;99.90
23669;DHT22;12011;47.422;15.018;2024-01-30T03:48:30;-7.40;99.90
23669;DHT22;12011;47.422;15.018;2024-01-30T03:51:00;-6.40;99.90
23669;DHT22;12011;47.422;15.018;2024-01-30T03:53:33;-7.20;99.90
23669;DHT22;12011;47.422;15.018;2024-01-30T03:56:03;-7.20;99.90
23669;DHT22;12011;47.422;15.018;2024-01-30T03:58:33;-7.10;99.90
23669;DHT22;12011;47.422;15.018;2024-01-30T04:01:06;-7.10;99.90
23669;DHT22;12011;47.422;15.018;2024-01-30T04:03:36;-7.00;99.90
23669;DHT22;12011;47.422;15.018;2024-01-30T04:06:06;-7.10;99.90
23669;DHT22;12011;47.422;15.018;2024-01-30T04:08:38;-7.10;99.90
23669;DHT22;12011;47.422;15.018;2024-01-30T04:11:10;-7.30;99.90
23669;DHT22;12011;47.422;15.018;2024-01-30T04:13:52;-7.40;99.90
23669;DHT22;12011;47.422;15.018;2024-01-30T04:16:23;-6.60;99.90
23669;DHT22;12011;47.422;15.018;2024-01-30T04:18:53;-7.40;99.90
23669;DHT22;12011;47.422;15.018;2024-01-30T04:21:22;-7.40;99.90
23669;DHT22;12011;47.422;15.018;2024-01-30T04:23:55;-6.70;99.90
23669;DHT22;12011;47.422;15.018;2024-01-30T04:26:25;-7.30;99.90
23669;DHT22;12011;47.422;15.018;2024-01-30T04:28:54;-7.30;99.90
23669;DHT22;12011;47.422;15.018;2024-01-30T04:31:24;-6.90;99.90
23669;DHT22;12011;47.422;15.018;2024-01-30T04:33:54;-7.40;99.90
23669;DHT22;12011;47.422;15.018;2024-01-30T04:36:23;-6.90;99.90
23669;DHT22;12011;47.422;15.018;2024-01-30T04:38:56;-7.20;99.90
23669;DHT22;12011;47.422;15.018;2024-01-30T04:41:26;-7.20;99.90
23669;DHT22;12011;47.422;15.018;2024-01-30T04:43:57;-6.40;99.90
23669;DHT22;12011;47.422;15.018;2024-01-30T04:46:27;-6.80;99.90
23669;DHT22;12011;47.422;15.018;2024-01-30T04:48:57;-7.20;99.90
23669;DHT22;12011;47.422;15.018;2024-01-30T04:51:27;-7.30;99.90
23669;DHT22;12011;47.422;15.018;2024-01-30T04:53:59;-7.30;99.90
23669;DHT22;12011;47.422;15.018;2024-01-30T04:56:29;-7.30;99.90
23669;DHT22;12011;47.422;15.018;2024-01-30T04:58:58;-7.40;99.90
23669;DHT22;12011;47.422;15.018;2024-01-30T05:01:28;-7.40;99.90
23669;DHT22;12011;47.422;15.018;2024-01-30T05:03:58;-7.20;99.90
23669;DHT22;12011;47.422;15.018;2024-01-30T05:06:30;-7.40;99.90
23669;DHT22;12011;47.422;15.018;2024-01-30T05:09:02;-7.50;99.90
23669;DHT22;12011;47.422;15.018;2024-01-30T05:11:37;-7.50;99.90
23669;DHT22;12011;47.422;15.018;2024-01-30T05:14:07;-7.50;99.90
23669;DHT22;12011;47.422;15.018;2024-01-30T05:16:38;-7.60;99.90
23669;DHT22;12011;47.422;15.018;2024-01-30T05:19:07;-7.60;99.90
23669;DHT22;12011;47.422;15.018;2024-01-30T05:21:37;-7.40;99.90
23669;DHT22;12011;47.422;15.018;2024-01-30T05:24:10;-7.40;99.90
23669;DHT22;12011;47.422;15.018;2024-01-30T05:26:39;-7.40;99.90
23669;DHT22;12011;47.422;15.018;2024-01-30T05:29:09;-7.30;99.90
23669;DHT22;12011;47.422;15.018;2024-01-30T05:31:39;-7.30;99.90
23669;DHT22;12011;47.422;15.018;2024-01-30T05:34:08;-7.20;99.90
23669;DHT22;12011;47.422;15.018;2024-01-30T05:36:38;-7.10;99.90
23669;DHT22;12011;47.422;15.018;2024-01-30T05:39:10;-7.10;99.90
23669;DHT22;12011;47.422;15.018;2024-01-30T05:41:40;-7.10;99.90
23669;DHT22;12011;47.422;15.018;2024-01-30T05:44:10;-6.80;99.90
23669;DHT22;12011;47.422;15.018;2024-01-30T05:46:40;-7.40;99.90
23669;DHT22;12011;47.422;15.018;2024-01-30T05:49:09;-7.40;99.90
23669;DHT22;12011;47.422;15.018;2024-01-30T05:51:39;-7.50;99.90
23669;DHT22;12011;47.422;15.018;2024-01-30T05:54:12;-7.50;99.90
23669;DHT22;12011;47.422;15.018;2024-01-30T05:56:41;-7.40;99.90
23669;DHT22;12011;47.422;15.018;2024-01-30T05:59:11;-7.60;99.90
23669;DHT22;12011;47.422;15.018;2024-01-30T06:01:45;-7.60;99.90
23669;DHT22;12011;47.422;15.018;2024-01-30T06:04:15;-7.60;99.90
23669;DHT22;12011;47.422;15.018;2024-01-30T06:06:45;-7.50;99.90
23669;DHT22;12011;47.422;15.018;2024-01-30T06:09:17;-7.60;99.90
23669;DHT22;12011;47.422;15.018;2024-01-30T06:11:47;-7.60;99.90
23669;DHT22;12011;47.422;15.018;2024-01-30T06:14:17;-7.60;99.90
23669;DHT22;12011;47.422;15.018;2024-01-30T06:16:46;-6.50;99.90
23669;DHT22;12011;47.422;15.018;2024-01-30T06:19:16;-6.80;99.90
23669;DHT22;12011;47.422;15.018;2024-01-30T06:21:46;-7.60;99.90
23669;DHT22;12011;47.422;15.018;2024-01-30T06:24:18;-7.70;99.90
23669;DHT22;12011;47.422;15.018;2024-01-30T06:26:48;-7.70;99.90
23669;DHT22;12011;47.422;15.018;2024-01-30T06:29:18;-7.70;99.90
23669;DHT22;12011;47.422;15.018;2024-01-30T06:31:47;-7.70;99.90
23669;DHT22;12011;47.422;15.018;2024-01-30T06:34:17;-7.60;99.90
23669;DHT22;12011;47.422;15.018;2024-01-30T06:36:47;-6.70;99.90
23669;DHT22;12011;47.422;15.018;2024-01-30T06:39:19;-7.60;99.90
23669;DHT22;12011;47.422;15.018;2024-01-30T06:41:49;-7.50;99.90
23669;DHT22;12011;47.422;15.018;2024-01-30T06:44:19;-7.40;99.90
23669;DHT22;12011;47.422;15.018;2024-01-30T06:46:48;-7.40;99.90
23669;DHT22;12011;47.422;15.018;2024-01-30T06:49:18;-6.50;99.90
23669;DHT22;12011;47.422;15.018;2024-01-30T06:51:48;-7.40;99.90
23669;DHT22;12011;47.422;15.018;2024-01-30T06:54:20;-7.30;99.90
23669;DHT22;12011;47.422;15.018;2024-01-30T06:56:50;-6.60;99.90
23669;DHT22;12011;47.422;15.018;2024-01-30T06:59:20;-7.20;99.90
23669;DHT22;12011;47.422;15.018;2024-01-30T07:01:49;-7.10;99.90
23669;DHT22;12011;47.422;15.018;2024-01-30T07:04:19;-7.10;99.90
23669;DHT22;12011;47.422;15.018;2024-01-30T07:06:49;-7.10;99.90
23669;DHT22;12011;47.422;15.018;2024-01-30T07:09:22;-7.00;99.90
23669;DHT22;12011;47.422;15.018;2024-01-30T07:11:53;-6.90;99.90
23669;DHT22;12011;47.422;15.018;2024-01-30T07:14:24;-6.90;99.90
23669;DHT22;12011;47.422;15.018;2024-01-30T07:16:54;-6.90;99.90
23669;DHT22;12011;47.422;15.018;2024-01-30T07:19:24;-6.80;99.90
23669;DHT22;12011;47.422;15.018;2024-01-30T07:21:54;-6.80;99.90
23669;DHT22;12011;47.422;15.018;2024-01-30T07:24:27;-6.80;99.90
23669;DHT22;12011;47.422;15.018;2024-01-30T07:26:56;-6.70;99.90
23669;DHT22;12011;47.422;15.018;2024-01-30T07:29:26;-6.60;99.90
23669;DHT22;12011;47.422;15.018;2024-01-30T07:31:56;-6.60;99.90
23669;DHT22;12011;47.422;15.018;2024-01-30T07:34:25;-6.50;99.90
23669;DHT22;12011;47.422;15.018;2024-01-30T07:36:55;-6.20;99.90
23669;DHT22;12011;47.422;15.018;2024-01-30T07:39:28;-3.60;99.90
23669;DHT22;12011;47.422;15.018;2024-01-30T07:41:58;-0.60;99.90
23669;DHT22;12011;47.422;15.018;2024-01-30T07:44:27;1.80;99.90
23669;DHT22;12011;47.422;15.018;2024-01-30T07:46:57;3.50;99.90
23669;DHT22;12011;47.422;15.018;2024-01-30T07:49:27;4.60;92.40
23669;DHT22;12011;47.422;15.018;2024-01-30T07:51:56;5.60;92.20
23669;DHT22;12011;47.422;15.018;2024-01-30T07:54:31;6.50;69.10
23669;DHT22;12011;47.422;15.018;2024-01-30T07:57:32;7.20;56.10
23669;DHT22;12011;47.422;15.018;2024-01-30T08:00:01;7.60;48.00
23669;DHT22;12011;47.422;15.018;2024-01-30T08:02:33;7.70;45.00
23669;DHT22;12011;47.422;15.018;2024-01-30T08:05:03;7.80;43.30
23669;DHT22;12011;47.422;15.018;2024-01-30T08:07:35;8.20;42.60
23669;DHT22;12011;47.422;15.018;2024-01-30T08:10:09;8.40;42.40
23669;DHT22;12011;47.422;15.018;2024-01-30T08:12:40;8.60;40.50
23669;DHT22;12011;47.422;15.018;2024-01-30T08:15:12;8.70;39.90
23669;DHT22;12011;47.422;15.018;2024-01-30T08:17:41;8.80;39.60
23669;DHT22;12011;47.422;15.018;2024-01-30T08:20:11;9.00;38.90
23669;DHT22;12011;47.422;15.018;2024-01-30T08:22:42;9.10;38.20
23669;DHT22;12011;47.422;15.018;2024-01-30T08:25:15;9.30;37.00
23669;DHT22;12011;47.422;15.018;2024-01-30T08:27:45;9.80;37.00
23669;DHT22;12011;47.422;15.018;2024-01-30T08:30:15;10.40;36.30
23669;DHT22;12011;47.422;15.018;2024-01-30T08:32:44;10.50;34.40
23669;DHT22;12011;47.422;15.018;2024-01-30T08:35:14;10.60;34.30
23669;DHT22;12011;47.422;15.018;2024-01-30T08:37:44;10.60;34.90
23669;DHT22;12011;47.422;15.018;2024-01-30T08:40:16;11.00;36.00
23669;DHT22;12011;47.422;15.018;2024-01-30T08:42:46;11.30;33.80
23669;DHT22;12011;47.422;15.018;2024-01-30T08:45:16;11.50;34.10
23669;DHT22;12011;47.422;15.018;2024-01-30T08:47:45;11.50;33.90
23669;DHT22;12011;47.422;15.018;2024-01-30T08:50:15;11.40;33.50
23669;DHT22;12011;47.422;15.018;2024-01-30T08:52:45;11.60;31.70
23669;DHT22;12011;47.422;15.018;2024-01-30T08:55:17;11.40;32.00
23669;DHT22;12011;47.422;15.018;2024-01-30T08:57:47;11.30;32.60
23669;DHT22;12011;47.422;15.018;2024-01-30T09:00:18;11.80;31.80
23669;DHT22;12011;47.422;15.018;2024-01-30T09:02:48;11.80;32.10
23669;DHT22;12011;47.422;15.018;2024-01-30T09:05:18;11.80;31.80
23669;DHT22;12011;47.422;15.018;2024-01-30T09:07:47;11.60;31.30
23669;DHT22;12011;47.422;15.018;2024-01-30T09:10:20;11.70;31.80
23669;DHT22;12011;47.422;15.018;2024-01-30T09:12:50;12.20;32.80
23669;DHT22;12011;47.422;15.018;2024-01-30T09:15:19;12.00;30.70
23669;DHT22;12011;47.422;15.018;2024-01-30T09:17:49;11.90;30.80
23669;DHT22;12011;47.422;15.018;2024-01-30T09:20:19;11.90;31.70
23669;DHT22;12011;47.422;15.018;2024-01-30T09:22:49;12.30;31.00
23669;DHT22;12011;47.422;15.018;2024-01-30T09:25:21;12.70;31.60
23669;DHT22;12011;47.422;15.018;2024-01-30T09:27:51;12.20;30.00
23669;DHT22;12011;47.422;15.018;2024-01-30T09:30:20;12.40;29.80
23669;DHT22;12011;47.422;15.018;2024-01-30T09:32:50;12.30;31.00
23669;DHT22;12011;47.422;15.018;2024-01-30T09:35:20;11.80;31.00
23669;DHT22;12011;47.422;15.018;2024-01-30T09:37:49;12.10;31.60
23669;DHT22;12011;47.422;15.018;2024-01-30T09:40:22;12.10;31.30
23669;DHT22;12011;47.422;15.018;2024-01-30T09:42:52;11.60;32.20
23669;DHT22;12011;47.422;15.018;2024-01-30T09:45:24;10.50;32.90
23669;DHT22;12011;47.422;15.018;2024-01-30T09:47:54;8.90;35.40
23669;DHT22;12011;47.422;15.018;2024-01-30T09:50:24;7.60;39.00
23669;DHT22;12011;47.422;15.018;2024-01-30T09:52:55;6.10;41.80
23669;DHT22;12011;47.422;15.018;2024-01-30T09:55:29;5.30;45.00
23669;DHT22;12011;47.422;15.018;2024-01-30T09:57:59;4.70;46.90
23669;DHT22;12011;47.422;15.018;2024-01-30T10:00:28;4.00;55.20
23669;DHT22;12011;47.422;15.018;2024-01-30T10:02:58;3.70;50.50
23669;DHT22;12011;47.422;15.018;2024-01-30T10:05:27;3.10;49.80
23669;DHT22;12011;47.422;15.018;2024-01-30T10:08:01;2.90;56.40
23669;DHT22;12011;47.422;15.018;2024-01-30T10:10:33;2.90;60.90
23669;DHT22;12011;47.422;15.018;2024-01-30T10:13:03;2.80;65.90
23669;DHT22;12011;47.422;15.018;2024-01-30T10:15:33;2.70;65.10
23669;DHT22;12011;47.422;15.018;2024-01-30T10:18:03;2.70;68.30
23669;DHT22;12011;47.422;15.018;2024-01-30T10:20:32;2.70;66.80
23669;DHT22;12011;47.422;15.018;2024-01-30T10:23:03;2.60;82.20
23669;DHT22;12011;47.422;15.018;2024-01-30T10:25:37;2.40;89.40
23669;DHT22;12011;47.422;15.018;2024-01-30T10:28:07;2.20;84.80
23669;DHT22;12011;47.422;15.018;2024-01-30T10:30:37;2.20;76.00
23669;DHT22;12011;47.422;15.018;2024-01-30T10:33:07;2.10;87.40
23669;DHT22;12011;47.422;15.018;2024-01-30T10:35:37;2.10;90.00
23669;DHT22;12011;47.422;15.018;2024-01-30T10:38:11;2.30;91.20
23669;DHT22;12011;47.422;15.018;2024-01-30T10:40:48;2.40;93.00
23669;DHT22;12011;47.422;15.018;2024-01-30T10:43:23;2.50;81.50
23669;DHT22;12011;47.422;15.018;2024-01-30T10:45:54;2.80;75.60
23669;DHT22;12011;47.422;15.018;2024-01-30T10:48:30;3.80;57.70
23669;DHT22;12011;47.422;15.018;2024-01-30T10:51:04;4.80;49.90
23669;DHT22;12011;47.422;15.018;2024-01-30T10:53:34;6.30;49.10
23669;DHT22;12011;47.422;15.018;2024-01-30T10:56:08;7.50;42.90
23669;DHT22;12011;47.422;15.018;2024-01-30T10:58:40;8.30;41.60
23669;DHT22;12011;47.422;15.018;2024-01-30T11:01:10;9.20;37.90
23669;DHT22;12011;47.422;15.018;2024-01-30T11:03:42;10.00;38.80
23669;DHT22;12011;47.422;15.018;2024-01-30T11:06:12;10.80;35.40
23669;DHT22;12011;47.422;15.018;2024-01-30T11:08:44;11.40;32.70
23669;DHT22;12011;47.422;15.018;2024-01-30T11:11:17;11.60;31.20
23669;DHT22;12011;47.422;15.018;2024-01-30T11:13:50;11.80;30.00
23669;DHT22;12011;47.422;15.018;2024-01-30T11:16:20;12.20;30.10
23669;DHT22;12011;47.422;15.018;2024-01-30T11:18:51;12.80;30.40
23669;DHT22;12011;47.422;15.018;2024-01-30T11:21:20;13.10;29.10
23669;DHT22;12011;47.422;15.018;2024-01-30T11:23:55;13.40;29.00
23669;DHT22;12011;47.422;15.018;2024-01-30T11:26:31;13.70;28.50
23669;DHT22;12011;47.422;15.018;2024-01-30T11:29:03;13.30;27.80
23669;DHT22;12011;47.422;15.018;2024-01-30T11:31:36;12.90;28.40
23669;DHT22;12011;47.422;15.018;2024-01-30T11:34:06;13.50;28.20
23669;DHT22;12011;47.422;15.018;2024-01-30T11:36:38;14.00;28.90
23669;DHT22;12011;47.422;15.018;2024-01-30T11:39:08;13.90;27.20
23669;DHT22;12011;47.422;15.018;2024-01-30T11:41:41;14.00;27.20
23669;DHT22;12011;47.422;15.018;2024-01-30T11:44:11;14.60;27.10
23669;DHT22;12011;47.422;15.018;2024-01-30T11:46:41;14.60;26.40
23669;DHT22;12011;47.422;15.018;2024-01-30T11:49:11;14.30;27.10
23669;DHT22;12011;47.422;15.018;2024-01-30T11:51:41;14.70;26.80
23669;DHT22;12011;47.422;15.018;2024-01-30T11:54:10;14.80;26.60
23669;DHT22;12011;47.422;15.018;2024-01-30T11:56:43;15.10;26.90
23669;DHT22;12011;47.422;15.018;2024-01-30T11:59:14;15.00;25.80
23669;DHT22;12011;47.422;15.018;2024-01-30T12:01:44;13.80;25.50
23669;DHT22;12011;47.422;15.018;2024-01-30T12:04:13;14.70;26.40
23669;DHT22;12011;47.422;15.018;2024-01-30T12:06:44;14.70;26.90
23669;DHT22;12011;47.422;15.018;2024-01-30T12:09:24;14.80;26.50
23669;DHT22;12011;47.422;15.018;2024-01-30T12:11:56;14.80;26.50
23669;DHT22;12011;47.422;15.018;2024-01-30T12:14:45;15.00;26.20
23669;DHT22;12011;47.422;15.018;2024-01-30T12:20:58;15.10;26.90
23669;DHT22;12011;47.422;15.018;2024-01-30T12:23:43;14.50;25.70
23669;DHT22;12011;47.422;15.018;2024-01-30T12:26:13;14.70;27.30
23669;DHT22;12011;47.422;15.018;2024-01-30T12:29:34;14.90;25.90
23669;DHT22;12011;47.422;15.018;2024-01-30T12:32:44;15.10;26.00
23669;DHT22;12011;47.422;15.018;2024-01-30T12:40:54;15.20;26.20
23669;DHT22;12011;47.422;15.018;2024-01-30T12:43:27;15.20;25.40
23669;DHT22;12011;47.422;15.018;2024-01-30T12:46:00;15.00;26.00
23669;DHT22;12011;47.422;15.018;2024-01-30T12:48:29;14.50;25.70
23669;DHT22;12011;47.422;15.018;2024-01-30T12:50:59;14.50;25.80
23669;DHT22;12011;47.422;15.018;2024-01-30T12:53:29;14.50;26.70
23669;DHT22;12011;47.422;15.018;2024-01-30T12:55:59;14.20;26.70
23669;DHT22;12011;47.422;15.018;2024-01-30T12:58:28;14.00;26.80
23669;DHT22;12011;47.422;15.018;2024-01-30T13:01:01;14.10;26.60
23669;DHT22;12011;47.422;15.018;2024-01-30T13:03:31;13.80;26.50
23669;DHT22;12011;47.422;15.018;2024-01-30T13:06:01;12.90;27.60
23669;DHT22;12011;47.422;15.018;2024-01-30T13:08:30;12.80;28.20
23669;DHT22;12011;47.422;15.018;2024-01-30T13:11:00;12.30;28.50
23669;DHT22;12011;47.422;15.018;2024-01-30T13:13:32;11.90;29.30
23669;DHT22;12011;47.422;15.018;2024-01-30T13:16:05;11.40;31.10
23669;DHT22;12011;47.422;15.018;2024-01-30T13:18:35;11.20;31.40
23669;DHT22;12011;47.422;15.018;2024-01-30T13:21:05;10.80;32.50
23669;DHT22;12011;47.422;15.018;2024-01-30T13:23:34;10.20;32.50
23669;DHT22;12011;47.422;15.018;2024-01-30T13:26:08;9.80;33.60
23669;DHT22;12011;47.422;15.018;2024-01-30T13:28:38;9.40;33.90
23669;DHT22;12011;47.422;15.018;2024-01-30T13:31:11;9.10;35.50
23669;DHT22;12011;47.422;15.018;2024-01-30T13:33:41;8.40;36.90
23669;DHT22;12011;47.422;15.018;2024-01-30T13:39:00;7.60;39.80
23669;DHT22;12011;47.422;15.018;2024-01-30T13:41:33;7.20;45.10
23669;DHT22;12011;47.422;15.018;2024-01-30T13:44:04;6.90;47.90
23669;DHT22;12011;47.422;15.018;2024-01-30T13:46:36;6.70;45.30
23669;DHT22;12011;47.422;15.018;2024-01-30T13:49:06;6.50;45.30
23669;DHT22;12011;47.422;15.018;2024-01-30T13:51:35;6.40;44.60
23669;DHT22;12011;47.422;15.018;2024-01-30T13:54:05;6.40;44.90
23669;DHT22;12011;47.422;15.018;2024-01-30T13:56:35;6.30;45.30
23669;DHT22;12011;47.422;15.018;2024-01-30T13:59:04;6.40;45.60
23669;DHT22;12011;47.422;15.018;2024-01-30T14:01:37;6.30;45.50
23669;DHT22;12011;47.422;15.018;2024-01-30T14:04:06;6.20;45.00
23669;DHT22;12011;47.422;15.018;2024-01-30T14:06:37;6.30;46.30
23669;DHT22;12011;47.422;15.018;2024-01-30T14:09:07;6.20;46.40
23669;DHT22;12011;47.422;15.018;2024-01-30T14:11:37;6.20;45.20
23669;DHT22;12011;47.422;15.018;2024-01-30T14:14:07;6.40;46.70
23669;DHT22;12011;47.422;15.018;2024-01-30T14:16:39;6.30;45.90
23669;DHT22;12011;47.422;15.018;2024-01-30T14:19:09;6.40;47.20
23669;DHT22;12011;47.422;15.018;2024-01-30T14:21:38;6.50;50.00
23669;DHT22;12011;47.422;15.018;2024-01-30T14:24:08;6.50;44.60
23669;DHT22;12011;47.422;15.018;2024-01-30T14:26:38;6.60;51.30
23669;DHT22;12011;47.422;15.018;2024-01-30T14:29:08;6.70;45.80
23669;DHT22;12011;47.422;15.018;2024-01-30T14:31:40;6.70;47.10
23669;DHT22;12011;47.422;15.018;2024-01-30T14:34:10;6.60;45.40
23669;DHT22;12011;47.422;15.018;2024-01-30T14:36:40;6.60;48.20
23669;DHT22;12011;47.422;15.018;2024-01-30T14:39:10;6.60;47.70
23669;DHT22;12011;47.422;15.018;2024-01-30T14:41:39;6.50;43.00
23669;DHT22;12011;47.422;15.018;2024-01-30T14:44:09;6.50;45.40
23669;DHT22;12011;47.422;15.018;2024-01-30T14:46:43;6.40;49.00
23669;DHT22;12011;47.422;15.018;2024-01-30T14:49:12;6.30;47.80
23669;DHT22;12011;47.422;15.018;2024-01-30T14:51:42;6.20;47.80
23669;DHT22;12011;47.422;15.018;2024-01-30T14:54:13;6.20;48.70
23669;DHT22;12011;47.422;15.018;2024-01-30T14:56:42;6.20;51.60
23669;DHT22;12011;47.422;15.018;2024-01-30T14:59:12;6.10;46.10
23669;DHT22;12011;47.422;15.018;2024-01-30T15:01:45;6.00;51.10
23669;DHT22;12011;47.422;15.018;2024-01-30T15:04:14;5.80;49.50
23669;DHT22;12011;47.422;15.018;2024-01-30T15:06:44;5.70;58.10
23669;DHT22;12011;47.422;15.018;2024-01-30T15:09:15;5.30;63.40
23669;DHT22;12011;47.422;15.018;2024-01-30T15:11:45;5.10;76.20
23669;DHT22;12011;47.422;15.018;2024-01-30T15:14:15;4.80;75.30
23669;DHT22;12011;47.422;15.018;2024-01-30T15:16:47;4.60;80.10
23669;DHT22;12011;47.422;15.018;2024-01-30T15:19:17;4.10;87.30
23669;DHT22;12011;47.422;15.018;2024-01-30T15:21:47;4.00;91.00
23669;DHT22;12011;47.422;15.018;2024-01-30T15:24:16;3.70;96.00
23669;DHT22;12011;47.422;15.018;2024-01-30T15:26:50;3.40;95.60
23669;DHT22;12011;47.422;15.018;2024-01-30T15:29:20;3.20;94.80
23669;DHT22;12011;47.422;15.018;2024-01-30T15:31:53;3.30;94.40
23669;DHT22;12011;47.422;15.018;2024-01-30T15:34:22;3.30;92.10
23669;DHT22;12011;47.422;15.018;2024-01-30T15:36:52;3.30;91.80
23669;DHT22;12011;47.422;15.018;2024-01-30T15:39:22;3.20;88.80
23669;DHT22;12011;47.422;15.018;2024-01-30T15:41:52;3.20;91.40
23669;DHT22;12011;47.422;15.018;2024-01-30T15:44:22;3.00;92.30
23669;DHT22;12011;47.422;15.018;2024-01-30T15:46:54;2.90;93.60
23669;DHT22;12011;47.422;15.018;2024-01-30T15:49:24;2.80;95.70
23669;DHT22;12011;47.422;15.018;2024-01-30T15:51:54;2.60;95.10
23669;DHT22;12011;47.422;15.018;2024-01-30T15:54:24;2.60;96.30